Time;durP1;ratioP1;P1;durP2;ratioP2;P2;SDS_P1;SDS_P2;PMS_P1;PMS_P2;Temp;Humidity;BMP_temperature;BMP_pressure;BME280_temperature;BME280_humidity;BME280_pressure;Samples;Min_cycle;Max_cycle;Signal;HPM_P1;HPM_P2
2023/08/10 00:01:39;;;;;;;4.53;1.30;;;;;;;;;;5130879;27;20120;-58
2023/08/10 00:04:05;;;;;;;4.18;1.65;;;;;;;;;;5111358;28;20024;-59
2023/08/10 00:06:30;;;;;;;5.23;1.50;;;;;;;;;;5114833;27;20024;-58
2023/08/10 00:08:55;;;;;;;3.13;1.15;;;;;;;;;;5114881;27;20112;-60
2023/08/10 00:11:21;;;;;;;4.47;1.40;;;;;;;;;;5114614;27;20011;-58
2023/08/10 00:13:46;;;;;;;3.23;1.23;;;;;;;;;;5120098;27;20027;-58
2023/08/10 00:16:11;;;;;;;5.45;1.52;;;;;;;;;;5133705;27;20039;-58
2023/08/10 00:18:37;;;;;;;5.53;1.63;;;;;;;;;;5122718;27;20062;-58
2023/08/10 00:21:03;;;;;;;5.13;1.57;;;;;;;;;;5114844;28;20028;-58
2023/08/10 00:23:28;;;;;;;4.00;1.27;;;;;;;;;;5114284;28;20093;-58
2023/08/10 00:25:54;;;;;;;5.40;1.55;;;;;;;;;;5114624;28;20347;-59
2023/08/10 00:28:19;;;;;;;3.83;1.33;;;;;;;;;;5114110;28;20028;-58
2023/08/10 00:30:44;;;;;;;4.43;1.58;;;;;;;;;;5118049;27;20019;-58
2023/08/10 00:33:09;;;;;;;3.75;1.25;;;;;;;;;;5147600;27;20381;-59
2023/08/10 00:35:37;;;;;;;5.95;1.42;;;;;;;;;;5155482;27;20018;-61
2023/08/10 00:38:03;;;;;;;3.83;1.23;;;;;;;;;;5134833;27;20023;-57
2023/08/10 00:40:28;;;;;;;5.73;1.50;;;;;;;;;;5134739;27;20116;-59
2023/08/10 00:42:54;;;;;;;6.40;2.00;;;;;;;;;;5134219;27;20029;-59
2023/08/10 00:45:19;;;;;;;3.83;1.40;;;;;;;;;;5134171;27;20026;-58
2023/08/10 00:47:44;;;;;;;5.25;1.48;;;;;;;;;;5134742;27;20202;-59
2023/08/10 00:50:09;;;;;;;5.67;2.13;;;;;;;;;;5155059;27;20072;-58
2023/08/10 00:52:34;;;;;;;4.27;1.67;;;;;;;;;;5155549;27;20504;-57
2023/08/10 00:55:00;;;;;;;4.47;1.50;;;;;;;;;;5118641;27;20028;-59
2023/08/10 00:57:25;;;;;;;3.53;1.27;;;;;;;;;;5129306;27;20008;-58
2023/08/10 00:59:51;;;;;;;3.97;1.38;;;;;;;;;;5124509;27;20114;-58
2023/08/10 01:02:16;;;;;;;5.20;1.20;;;;;;;;;;5134192;27;20055;-58
2023/08/10 01:04:42;;;;;;;3.50;1.27;;;;;;;;;;5133647;27;20022;-57
2023/08/10 01:07:07;;;;;;;4.65;1.38;;;;;;;;;;5134039;27;20106;-58
2023/08/10 01:09:39;;;;;;;4.35;1.65;;;;;;;;;;5134151;27;20092;-59
2023/08/10 01:12:24;;;;;;;4.53;1.40;;;;;;;;;;5134023;27;20035;-59
2023/08/10 01:15:10;;;;;;;3.58;1.30;;;;;;;;;;5133034;27;20410;-58
2023/08/10 01:17:39;;;;;;;6.95;1.48;;;;;;;;;;5091270;28;20032;-59
2023/08/10 01:20:04;;;;;;;4.57;1.50;;;;;;;;;;5113131;28;20035;-58
2023/08/10 01:22:48;;;;;;;4.07;1.45;;;;;;;;;;5113198;28;20019;-58
2023/08/10 01:25:14;;;;;;;;;;;;;;;;;;5113577;28;20038;-58
2023/08/10 01:27:39;;;;;;;4.85;1.33;;;;;;;;;;5113147;28;20363;-58
2023/08/10 01:30:07;;;;;;;4.60;1.58;;;;;;;;;;5113159;28;20028;-58
2023/08/10 01:32:32;;;;;;;4.05;1.38;;;;;;;;;;5112919;28;20523;-59
2023/08/10 01:34:58;;;;;;;3.63;1.27;;;;;;;;;;5112740;28;20027;-58
2023/08/10 01:37:23;;;;;;;3.63;1.40;;;;;;;;;;5113077;27;20024;-59
2023/08/10 01:39:48;;;;;;;4.70;1.70;;;;;;;;;;5113213;28;20023;-59
2023/08/10 01:42:14;;;;;;;6.13;1.43;;;;;;;;;;5112965;28;20498;-58
2023/08/10 01:44:39;;;;;;;3.47;1.30;;;;;;;;;;5112100;28;20023;-58
2023/08/10 01:47:06;;;;;;;4.20;1.53;;;;;;;;;;5112772;28;20096;-59
2023/08/10 01:49:34;;;;;;;4.65;1.40;;;;;;;;;;5112826;28;20016;-58
2023/08/10 01:52:00;;;;;;;4.05;1.40;;;;;;;;;;5117153;27;20016;-59
2023/08/10 01:54:26;;;;;;;4.80;1.48;;;;;;;;;;5153273;27;20427;-58
2023/08/10 01:56:51;;;;;;;4.47;1.60;;;;;;;;;;5153997;27;20019;-58
2023/08/10 01:59:17;;;;;;;5.50;1.60;;;;;;;;;;5141340;27;20068;-58
2023/08/10 02:01:42;;;;;;;3.57;1.27;;;;;;;;;;5120738;27;20019;-60
2023/08/10 02:04:07;;;;;;;3.83;1.03;;;;;;;;;;5131177;27;20027;-57
2023/08/10 02:06:38;;;;;;;4.33;1.30;;;;;;;;;;5128896;27;20059;-58
2023/08/10 02:09:05;;;;;;;3.42;1.10;;;;;;;;;;5114250;28;20023;-59
2023/08/10 02:11:30;;;;;;;4.85;1.40;;;;;;;;;;5114365;27;20007;-58
2023/08/10 02:13:55;;;;;;;3.93;1.50;;;;;;;;;;5112609;27;20495;-60
2023/08/10 02:16:20;;;;;;;3.70;1.30;;;;;;;;;;5126533;27;20026;-57
2023/08/10 02:18:45;;;;;;;4.10;1.40;;;;;;;;;;5130797;27;20027;-58
2023/08/10 02:21:10;;;;;;;5.40;1.80;;;;;;;;;;5125856;27;20012;-57
2023/08/10 02:23:36;;;;;;;6.00;1.55;;;;;;;;;;5111306;27;20023;-57
2023/08/10 02:26:01;;;;;;;3.87;1.47;;;;;;;;;;5122350;27;20482;-59
2023/08/10 02:28:26;;;;;;;5.50;1.43;;;;;;;;;;5132363;27;20489;-58
2023/08/10 02:30:51;;;;;;;4.33;1.43;;;;;;;;;;5128663;27;20019;-58
2023/08/10 02:33:16;;;;;;;3.47;1.23;;;;;;;;;;5131463;27;20394;-59
2023/08/10 02:35:41;;;;;;;3.13;1.33;;;;;;;;;;5122101;27;20060;-57
2023/08/10 02:38:07;;;;;;;4.43;1.40;;;;;;;;;;5113749;27;20084;-57
2023/08/10 02:40:32;;;;;;;3.07;1.20;;;;;;;;;;5113907;27;20031;-58
2023/08/10 02:42:57;;;;;;;4.17;1.43;;;;;;;;;;5111201;27;20091;-59
2023/08/10 02:45:22;;;;;;;3.63;1.33;;;;;;;;;;5116169;27;20023;-57
2023/08/10 02:47:47;;;;;;;4.78;1.48;;;;;;;;;;5118479;27;20024;-59
2023/08/10 02:50:12;;;;;;;3.80;1.60;;;;;;;;;;5115441;27;20444;-58
2023/08/10 02:52:38;;;;;;;4.90;1.50;;;;;;;;;;5111626;27;20019;-59
2023/08/10 02:55:03;;;;;;;5.67;1.53;;;;;;;;;;5111194;27;20293;-58
2023/08/10 02:57:29;;;;;;;4.82;1.63;;;;;;;;;;5111620;28;20043;-58
2023/08/10 02:59:54;;;;;;;4.53;1.70;;;;;;;;;;5117219;27;20046;-58
2023/08/10 03:02:19;;;;;;;5.43;1.63;;;;;;;;;;5111442;27;20115;-58
2023/08/10 03:04:45;;;;;;;6.03;1.40;;;;;;;;;;5115082;27;20027;-59
2023/08/10 03:07:10;;;;;;;3.53;1.27;;;;;;;;;;5131577;27;20063;-59
2023/08/10 03:09:37;;;;;;;3.53;1.35;;;;;;;;;;5118533;27;20053;-58
2023/08/10 03:12:02;;;;;;;5.50;1.58;;;;;;;;;;5111301;28;20107;-60
2023/08/10 03:14:27;;;;;;;4.80;1.60;;;;;;;;;;5110677;28;20238;-57
2023/08/10 03:16:52;;;;;;;5.23;1.50;;;;;;;;;;5125302;27;20024;-58
2023/08/10 03:19:17;;;;;;;5.77;1.43;;;;;;;;;;5120926;27;20064;-59
2023/08/10 03:21:43;;;;;;;4.90;1.48;;;;;;;;;;5114652;27;20033;-57
2023/08/10 03:24:08;;;;;;;3.80;1.40;;;;;;;;;;5110663;28;20028;-59
2023/08/10 03:26:33;;;;;;;4.10;1.40;;;;;;;;;;5114863;28;20383;-57
2023/08/10 03:28:58;;;;;;;5.77;1.80;;;;;;;;;;5113032;28;20027;-58
2023/08/10 03:31:23;;;;;;;3.93;1.77;;;;;;;;;;5122632;27;20011;-59
2023/08/10 03:33:49;;;;;;;3.95;1.60;;;;;;;;;;5114972;27;20015;-59
2023/08/10 03:36:15;;;;;;;4.57;1.73;;;;;;;;;;5116103;28;20027;-57
2023/08/10 03:38:40;;;;;;;6.90;1.83;;;;;;;;;;5115270;28;20509;-56
2023/08/10 03:41:05;;;;;;;5.90;1.40;;;;;;;;;;5125013;27;20016;-58
2023/08/10 03:43:30;;;;;;;4.50;1.90;;;;;;;;;;5114541;27;20027;-60
2023/08/10 03:45:56;;;;;;;5.77;2.00;;;;;;;;;;5114958;27;20483;-58
2023/08/10 03:48:21;;;;;;;4.85;1.60;;;;;;;;;;5117865;27;20034;-59
2023/08/10 03:50:47;;;;;;;5.60;1.43;;;;;;;;;;5119700;27;20015;-58
2023/08/10 03:53:12;;;;;;;4.22;1.63;;;;;;;;;;5114893;27;20023;-58
2023/08/10 03:55:37;;;;;;;4.27;1.40;;;;;;;;;;5115228;27;20122;-58
2023/08/10 03:58:03;;;;;;;6.23;1.40;;;;;;;;;;5130136;27;20476;-58
2023/08/10 04:00:28;;;;;;;5.77;1.70;;;;;;;;;;5117171;27;20030;-58
2023/08/10 04:02:53;;;;;;;7.27;1.90;;;;;;;;;;5114460;27;20103;-59
2023/08/10 04:05:19;;;;;;;8.47;2.10;;;;;;;;;;5114453;28;20026;-58
2023/08/10 04:07:44;;;;;;;8.60;1.70;;;;;;;;;;5118447;27;20038;-58
2023/08/10 04:10:12;;;;;;;3.97;1.50;;;;;;;;;;5114586;27;20490;-59
2023/08/10 04:12:38;;;;;;;6.80;1.52;;;;;;;;;;5114496;27;20026;-60
2023/08/10 04:15:04;;;;;;;5.10;1.70;;;;;;;;;;5122338;27;20020;-58
2023/08/10 04:17:29;;;;;;;4.22;1.75;;;;;;;;;;5119940;27;20115;-59
2023/08/10 04:19:56;;;;;;;4.85;1.70;;;;;;;;;;5115652;27;20027;-59
2023/08/10 04:22:21;;;;;;;4.20;1.67;;;;;;;;;;5121587;27;20015;-58
2023/08/10 04:24:46;;;;;;;3.67;1.67;;;;;;;;;;5118511;27;20023;-58
2023/08/10 04:27:11;;;;;;;4.18;1.65;;;;;;;;;;5114272;27;20103;-59
2023/08/10 04:29:37;;;;;;;4.30;1.30;;;;;;;;;;5128289;27;20114;-58
2023/08/10 04:32:03;;;;;;;4.85;1.50;;;;;;;;;;5115712;27;20381;-58
2023/08/10 04:34:28;;;;;;;4.45;1.70;;;;;;;;;;5122456;27;20023;-58
2023/08/10 04:36:53;;;;;;;4.63;1.60;;;;;;;;;;5134077;27;20023;-58
2023/08/10 04:39:18;;;;;;;3.70;1.43;;;;;;;;;;5129146;27;20023;-58
2023/08/10 04:41:44;;;;;;;5.27;1.50;;;;;;;;;;5119072;27;20356;-59
2023/08/10 04:44:09;;;;;;;5.05;1.42;;;;;;;;;;5130124;27;20023;-58
2023/08/10 04:46:34;;;;;;;4.30;1.67;;;;;;;;;;5130255;27;20046;-59
2023/08/10 04:49:00;;;;;;;6.07;1.70;;;;;;;;;;5121038;27;20414;-59
2023/08/10 04:51:25;;;;;;;5.45;1.67;;;;;;;;;;5112598;28;20019;-58
2023/08/10 04:53:50;;;;;;;5.97;1.60;;;;;;;;;;5115804;27;20096;-59
2023/08/10 04:56:15;;;;;;;5.22;1.58;;;;;;;;;;5125108;27;20876;-58
2023/08/10 04:58:41;;;;;;;6.23;1.50;;;;;;;;;;5112247;27;20024;-59
2023/08/10 05:01:06;;;;;;;5.47;1.47;;;;;;;;;;5139553;27;20011;-60
2023/08/10 05:03:31;;;;;;;4.17;1.43;;;;;;;;;;5153700;27;20473;-59
2023/08/10 05:05:56;;;;;;;4.20;1.60;;;;;;;;;;5124717;27;20114;-60
2023/08/10 05:08:22;;;;;;;5.70;1.30;;;;;;;;;;5134182;27;20042;-58
2023/08/10 05:10:47;;;;;;;5.03;1.40;;;;;;;;;;5134130;27;20436;-58
2023/08/10 05:13:13;;;;;;;3.23;1.20;;;;;;;;;;5137058;27;20019;-59
2023/08/10 05:15:38;;;;;;;5.70;1.40;;;;;;;;;;5122820;27;20034;-60
2023/08/10 05:18:03;;;;;;;4.00;1.20;;;;;;;;;;5113351;27;20023;-58
2023/08/10 05:20:28;;;;;;;3.85;1.38;;;;;;;;;;5114081;27;20031;-59
2023/08/10 05:22:54;;;;;;;4.87;1.40;;;;;;;;;;5117079;27;20240;-58
2023/08/10 05:25:19;;;;;;;3.75;1.30;;;;;;;;;;5114881;27;20153;-58
2023/08/10 05:27:44;;;;;;;3.03;1.10;;;;;;;;;;5110300;27;20142;-61
2023/08/10 05:30:13;;;;;;;4.50;1.23;;;;;;;;;;5110301;27;20116;-58
2023/08/10 05:32:39;;;;;;;4.75;1.45;;;;;;;;;;5111065;27;20019;-58
2023/08/10 05:35:05;;;;;;;4.32;1.10;;;;;;;;;;5109037;27;20024;-61
2023/08/10 05:37:31;;;;;;;;;;;;;;;;;;5118011;27;20082;-60
2023/08/10 05:39:56;;;;;;;4.00;1.23;;;;;;;;;;5109598;28;20006;-60
2023/08/10 05:42:21;;;;;;;3.22;1.05;;;;;;;;;;5112172;27;20802;-60
2023/08/10 05:44:47;;;;;;;3.58;1.10;;;;;;;;;;5117843;27;20027;-61
2023/08/10 05:47:12;;;;;;;3.50;1.30;;;;;;;;;;5127213;27;21173;-61
2023/08/10 05:49:37;;;;;;;3.97;1.30;;;;;;;;;;5111323;27;20015;-58
2023/08/10 05:52:03;;;;;;;5.53;1.23;;;;;;;;;;5128208;27;20720;-60
2023/08/10 05:54:28;;;;;;;5.20;1.25;;;;;;;;;;5107287;27;20106;-59
2023/08/10 05:56:53;;;;;;;5.00;1.20;;;;;;;;;;5125190;27;20110;-60
2023/08/10 05:59:20;;;;;;;;;;;;;;;;;;5109391;27;20451;-59
2023/08/10 06:01:47;;;;;;;3.70;1.10;;;;;;;;;;5114178;27;20455;-59
2023/08/10 06:04:12;;;;;;;3.83;1.20;;;;;;;;;;5109038;27;20397;-60
2023/08/10 06:06:37;;;;;;;2.90;1.13;;;;;;;;;;5119437;27;20019;-60
2023/08/10 06:09:04;;;;;;;4.27;1.20;;;;;;;;;;5109682;27;20026;-60
2023/08/10 06:11:29;;;;;;;;;;;;;;;;;;5119397;27;20027;-60
2023/08/10 06:13:54;;;;;;;9.90;1.30;;;;;;;;;;5119302;27;19961;-61
2023/08/10 06:16:19;;;;;;;4.53;1.10;;;;;;;;;;5113827;27;20368;-61
2023/08/10 06:18:44;;;;;;;4.13;1.00;;;;;;;;;;5110045;28;20028;-60
2023/08/10 06:21:10;;;;;;;6.90;1.40;;;;;;;;;;5108747;27;20071;-60
2023/08/10 06:23:35;;;;;;;3.65;1.10;;;;;;;;;;5107545;27;20012;-60
2023/08/10 06:26:01;;;;;;;6.55;1.20;;;;;;;;;;5108584;28;20106;-59
2023/08/10 06:28:26;;;;;;;5.03;1.10;;;;;;;;;;5109521;27;20024;-60
2023/08/10 06:30:51;;;;;;;5.03;1.03;;;;;;;;;;5118408;27;20418;-60
2023/08/10 06:33:16;;;;;;;3.10;1.00;;;;;;;;;;5120147;27;20176;-59
2023/08/10 06:35:41;;;;;;;3.83;0.97;;;;;;;;;;5146626;27;20438;-61
2023/08/10 06:38:07;;;;;;;4.37;1.10;;;;;;;;;;5114449;27;20038;-58
2023/08/10 06:40:32;;;;;;;4.40;1.20;;;;;;;;;;5109523;27;20024;-61
2023/08/10 06:42:58;;;;;;;4.30;1.30;;;;;;;;;;5119481;27;20123;-61
2023/08/10 06:45:23;;;;;;;3.42;1.10;;;;;;;;;;5121399;27;20037;-60
2023/08/10 06:47:49;;;;;;;3.47;1.00;;;;;;;;;;5108009;27;20023;-61
2023/08/10 06:50:14;;;;;;;3.25;1.00;;;;;;;;;;5123242;27;20027;-60
2023/08/10 06:52:41;;;;;;;2.87;1.00;;;;;;;;;;5114269;27;20674;-59
2023/08/10 06:55:06;;;;;;;3.60;1.08;;;;;;;;;;5116152;27;20080;-60
2023/08/10 06:57:32;;;;;;;5.17;1.10;;;;;;;;;;5122871;27;20410;-57
2023/08/10 06:59:57;;;;;;;3.23;1.27;;;;;;;;;;5114049;27;20103;-59
2023/08/10 07:02:22;;;;;;;3.37;1.00;;;;;;;;;;5126115;27;20035;-59
2023/08/10 07:04:47;;;;;;;4.07;1.23;;;;;;;;;;5110662;27;20032;-61
2023/08/10 07:07:14;;;;;;;5.30;1.30;;;;;;;;;;5111703;28;20031;-60
2023/08/10 07:09:39;;;;;;;5.18;1.00;;;;;;;;;;5111628;28;20019;-58
2023/08/10 07:12:04;;;;;;;3.75;1.08;;;;;;;;;;5111284;28;20076;-59
2023/08/10 07:14:29;;;;;;;4.50;1.10;;;;;;;;;;5110350;28;20391;-59
2023/08/10 07:16:55;;;;;;;3.20;1.10;;;;;;;;;;5111862;27;20023;-61
2023/08/10 07:19:20;;;;;;;4.38;1.10;;;;;;;;;;5128008;27;20038;-60
2023/08/10 07:21:45;;;;;;;3.43;1.10;;;;;;;;;;5132252;27;20099;-60
2023/08/10 07:24:10;;;;;;;5.23;1.20;;;;;;;;;;5131679;27;20039;-60
2023/08/10 07:26:35;;;;;;;3.67;1.00;;;;;;;;;;5132176;27;20096;-59
2023/08/10 07:29:00;;;;;;;3.63;1.07;;;;;;;;;;5132129;27;20019;-58
2023/08/10 07:31:31;;;;;;;4.53;1.10;;;;;;;;;;5128812;27;20068;-57
2023/08/10 07:33:57;;;;;;;5.03;1.15;;;;;;;;;;5110928;28;20023;-59
2023/08/10 07:36:22;;;;;;;3.65;1.10;;;;;;;;;;5111027;28;20088;-58
2023/08/10 07:38:47;;;;;;;4.88;1.20;;;;;;;;;;5111070;28;20537;-59
2023/08/10 07:41:13;;;;;;;5.10;1.10;;;;;;;;;;5111208;28;20020;-60
2023/08/10 07:43:38;;;;;;;4.20;1.10;;;;;;;;;;5110489;28;20026;-60
2023/08/10 07:46:04;;;;;;;3.13;1.00;;;;;;;;;;5111089;28;20501;-60
2023/08/10 07:48:29;;;;;;;5.22;1.15;;;;;;;;;;5111288;28;20453;-59
2023/08/10 07:50:54;;;;;;;3.65;1.13;;;;;;;;;;5111214;28;20020;-60
2023/08/10 07:53:20;;;;;;;3.23;0.97;;;;;;;;;;5130752;27;20027;-60
2023/08/10 07:55:45;;;;;;;3.83;1.08;;;;;;;;;;5131003;27;20015;-60
2023/08/10 07:58:12;;;;;;;3.38;1.10;;;;;;;;;;5123737;27;20014;-59
2023/08/10 08:00:38;;;;;;;3.38;1.00;;;;;;;;;;5112984;28;20051;-58
2023/08/10 08:03:04;;;;;;;3.88;1.00;;;;;;;;;;5123532;27;20050;-59
2023/08/10 08:05:29;;;;;;;6.68;1.20;;;;;;;;;;5110634;28;20019;-62
2023/08/10 08:07:55;;;;;;;4.97;1.10;;;;;;;;;;5110796;28;20016;-59
2023/08/10 08:10:20;;;;;;;5.20;1.00;;;;;;;;;;5109607;28;20115;-58
2023/08/10 08:12:45;;;;;;;3.90;0.97;;;;;;;;;;5110461;28;20035;-58
2023/08/10 08:15:10;;;;;;;3.83;1.43;;;;;;;;;;5110689;28;20024;-60
2023/08/10 08:17:54;;;;;;;4.63;1.33;;;;;;;;;;5110767;28;20551;-58
2023/08/10 08:20:19;;;;;;;;;;;;;;;;;;5111287;28;20030;-58
2023/08/10 08:22:44;;;;;;;4.40;1.27;;;;;;;;;;5110302;28;19947;-61
2023/08/10 08:25:09;;;;;;;3.07;1.00;;;;;;;;;;5111830;28;20012;-60
2023/08/10 08:27:35;;;;;;;4.53;1.00;;;;;;;;;;5114028;28;20035;-59
2023/08/10 08:30:00;;;;;;;3.47;1.02;;;;;;;;;;5124251;27;20025;-59
2023/08/10 08:32:26;;;;;;;3.33;1.03;;;;;;;;;;5125429;27;20072;-60
2023/08/10 08:34:51;;;;;;;3.63;1.10;;;;;;;;;;5114413;28;20023;-59
2023/08/10 08:37:16;;;;;;;3.53;0.97;;;;;;;;;;5114224;28;20455;-61
2023/08/10 08:39:42;;;;;;;3.53;1.05;;;;;;;;;;5114247;28;20069;-60
2023/08/10 08:42:07;;;;;;;4.10;1.00;;;;;;;;;;5114218;28;20023;-58
2023/08/10 08:44:33;;;;;;;3.37;1.07;;;;;;;;;;5114387;28;20094;-59
2023/08/10 08:46:58;;;;;;;6.05;1.45;;;;;;;;;;5115327;28;20556;-59
2023/08/10 08:49:24;;;;;;;4.10;1.10;;;;;;;;;;5115875;28;20028;-60
2023/08/10 08:51:49;;;;;;;7.15;1.90;;;;;;;;;;5128867;27;20435;-59
2023/08/10 08:54:15;;;;;;;4.88;1.20;;;;;;;;;;5127576;27;20031;-61
2023/08/10 08:56:40;;;;;;;4.03;1.25;;;;;;;;;;5115761;28;20026;-57
2023/08/10 08:59:05;;;;;;;3.80;1.00;;;;;;;;;;5113218;27;20015;-60
2023/08/10 09:01:31;;;;;;;2.93;1.00;;;;;;;;;;5114084;28;20012;-60
2023/08/10 09:03:56;;;;;;;2.28;0.98;;;;;;;;;;5113185;28;20087;-57
2023/08/10 09:06:21;;;;;;;2.42;0.80;;;;;;;;;;5113470;28;20020;-60
2023/08/10 09:08:46;;;;;;;3.33;1.10;;;;;;;;;;5113746;28;20022;-60
2023/08/10 09:11:12;;;;;;;2.63;1.10;;;;;;;;;;5113595;28;20012;-58
2023/08/10 09:13:37;;;;;;;4.03;1.00;;;;;;;;;;5113099;28;20023;-59
2023/08/10 09:16:09;;;;;;;3.40;1.10;;;;;;;;;;5113335;28;20395;-59
2023/08/10 09:18:36;;;;;;;3.33;1.10;;;;;;;;;;5113488;28;20086;-59
2023/08/10 09:21:10;;;;;;;4.40;1.52;;;;;;;;;;5113157;27;20012;-61
2023/08/10 09:23:35;;;;;;;4.53;1.20;;;;;;;;;;5112910;27;20022;-58
2023/08/10 09:26:06;;;;;;;3.92;1.20;;;;;;;;;;5113126;28;20102;-60
2023/08/10 09:28:34;;;;;;;3.28;0.95;;;;;;;;;;5113913;28;20078;-61
2023/08/10 09:30:59;;;;;;;4.80;1.23;;;;;;;;;;5113669;28;20020;-60
2023/08/10 09:33:28;;;;;;;3.03;1.00;;;;;;;;;;5112869;28;20093;-59
2023/08/10 09:35:57;;;;;;;4.10;1.00;;;;;;;;;;5113459;28;20023;-59
2023/08/10 09:38:23;;;;;;;2.88;0.90;;;;;;;;;;5112710;28;20324;-60
2023/08/10 09:40:48;;;;;;;2.77;0.90;;;;;;;;;;5113153;28;20434;-60
2023/08/10 09:43:13;;;;;;;3.20;0.90;;;;;;;;;;5112854;28;20030;-61
2023/08/10 09:45:38;;;;;;;2.33;0.90;;;;;;;;;;5113501;28;20035;-60
2023/08/10 09:48:09;;;;;;;3.33;1.10;;;;;;;;;;5112750;28;20061;-62
2023/08/10 09:50:35;;;;;;;2.90;0.95;;;;;;;;;;5120760;27;20030;-60
2023/08/10 09:53:01;;;;;;;3.50;1.00;;;;;;;;;;5114099;27;20012;-61
2023/08/10 09:55:26;;;;;;;2.92;0.93;;;;;;;;;;5112467;28;20018;-60
2023/08/10 09:57:52;;;;;;;4.60;1.10;;;;;;;;;;5134492;27;20385;-59
2023/08/10 10:00:22;;;;;;;3.08;1.00;;;;;;;;;;5154264;27;20412;-60
2023/08/10 10:02:47;;;;;;;3.00;0.77;;;;;;;;;;5153795;27;20589;-59
2023/08/10 10:05:14;;;;;;;3.10;0.90;;;;;;;;;;5154056;27;20042;-59
2023/08/10 10:07:40;;;;;;;3.25;1.10;;;;;;;;;;5153632;27;20029;-59
2023/08/10 10:10:12;;;;;;;4.13;1.13;;;;;;;;;;5153873;27;20415;-59
2023/08/10 10:12:37;;;;;;;4.35;1.30;;;;;;;;;;5154059;27;20022;-60
2023/08/10 10:15:02;;;;;;;4.22;1.15;;;;;;;;;;5153784;27;20499;-60
2023/08/10 10:17:27;;;;;;;3.70;1.17;;;;;;;;;;5153629;27;20030;-58
2023/08/10 10:19:53;;;;;;;3.10;1.10;;;;;;;;;;5153815;27;20050;-61
2023/08/10 10:22:19;;;;;;;3.47;1.20;;;;;;;;;;5152271;27;20029;-61
2023/08/10 10:24:44;;;;;;;2.75;1.00;;;;;;;;;;5148420;27;20123;-62
2023/08/10 10:27:11;;;;;;;3.53;1.25;;;;;;;;;;5131298;27;20034;-58
2023/08/10 10:29:40;;;;;;;3.78;1.17;;;;;;;;;;5132888;27;20105;-58
2023/08/10 10:32:21;;;;;;;4.15;1.10;;;;;;;;;;5132621;27;20029;-59
2023/08/10 10:34:46;;;;;;;3.38;1.23;;;;;;;;;;5128417;27;20024;-58
2023/08/10 10:37:14;;;;;;;2.85;0.90;;;;;;;;;;5111484;27;20028;-62
2023/08/10 10:39:48;;;;;;;2.30;0.80;;;;;;;;;;5109762;27;20164;-60
2023/08/10 10:42:15;;;;;;;3.30;1.15;;;;;;;;;;5111533;28;20019;-58
2023/08/10 10:45:00;;;;;;;4.18;1.30;;;;;;;;;;5112154;28;20028;-61
2023/08/10 10:47:32;;;;;;;3.22;0.95;;;;;;;;;;5112422;28;20032;-60
2023/08/10 10:49:57;;;;;;;2.85;1.00;;;;;;;;;;5128876;27;20019;-60
2023/08/10 10:52:36;;;;;;;3.33;1.10;;;;;;;;;;5133211;27;20022;-60
2023/08/10 10:55:03;;;;;;;3.65;1.10;;;;;;;;;;5131544;27;20018;-60
2023/08/10 10:57:29;;;;;;;4.20;1.30;;;;;;;;;;5132299;27;20027;-61
2023/08/10 10:59:55;;;;;;;4.03;1.20;;;;;;;;;;5124356;27;20031;-60
2023/08/10 11:02:20;;;;;;;3.97;1.35;;;;;;;;;;5109775;27;20023;-60
2023/08/10 11:04:45;;;;;;;4.30;1.47;;;;;;;;;;5111067;28;20114;-61
2023/08/10 11:07:10;;;;;;;3.78;1.13;;;;;;;;;;5118591;27;20031;-60
2023/08/10 11:09:35;;;;;;;3.50;1.30;;;;;;;;;;5129288;27;20045;-60
2023/08/10 11:12:01;;;;;;;4.10;1.20;;;;;;;;;;5126504;27;20019;-60
2023/08/10 11:14:27;;;;;;;2.50;1.00;;;;;;;;;;5119474;27;20020;-59
2023/08/10 11:16:52;;;;;;;2.88;1.10;;;;;;;;;;5116433;27;20026;-61
2023/08/10 11:19:18;;;;;;;3.53;1.13;;;;;;;;;;5130366;27;20019;-59
2023/08/10 11:21:44;;;;;;;4.88;1.75;;;;;;;;;;5132205;27;20030;-61
2023/08/10 11:24:09;;;;;;;3.58;1.27;;;;;;;;;;5130101;27;20023;-57
2023/08/10 11:26:35;;;;;;;4.77;1.30;;;;;;;;;;5132900;27;20021;-58
2023/08/10 11:29:01;;;;;;;3.65;1.23;;;;;;;;;;5133556;27;20034;-60
2023/08/10 11:31:26;;;;;;;3.67;1.30;;;;;;;;;;5133642;27;20023;-59
2023/08/10 11:33:51;;;;;;;6.23;1.40;;;;;;;;;;5131972;27;20083;-59
2023/08/10 11:36:16;;;;;;;2.90;1.20;;;;;;;;;;5115873;27;20024;-61
2023/08/10 11:38:42;;;;;;;4.00;1.33;;;;;;;;;;5110475;28;20022;-59
2023/08/10 11:41:08;;;;;;;3.28;1.10;;;;;;;;;;5110914;28;20371;-59
2023/08/10 11:43:33;;;;;;;4.03;1.57;;;;;;;;;;5110648;28;20027;-59
2023/08/10 11:45:58;;;;;;;4.88;1.60;;;;;;;;;;5111187;28;20055;-60
2023/08/10 11:48:26;;;;;;;3.92;1.27;;;;;;;;;;5131285;27;20075;-61
2023/08/10 11:50:58;;;;;;;5.80;1.60;;;;;;;;;;5152243;27;20423;-59
2023/08/10 11:53:25;;;;;;;3.60;1.50;;;;;;;;;;5151713;27;20034;-62
2023/08/10 11:55:50;;;;;;;5.35;1.60;;;;;;;;;;5138757;27;20020;-59
2023/08/10 11:58:17;;;;;;;4.60;1.50;;;;;;;;;;5110797;28;20122;-60
2023/08/10 12:00:44;;;;;;;3.75;1.42;;;;;;;;;;5113206;28;20049;-60
2023/08/10 12:03:16;;;;;;;3.72;1.42;;;;;;;;;;5115130;28;20099;-60
2023/08/10 12:05:44;;;;;;;3.70;1.30;;;;;;;;;;5115126;28;20023;-61
2023/08/10 12:08:10;;;;;;;3.20;1.50;;;;;;;;;;5114351;28;20073;-60
2023/08/10 12:10:36;;;;;;;3.40;1.50;;;;;;;;;;5114190;27;20019;-58
2023/08/10 12:13:01;;;;;;;;;;;;;;;;;;5115262;28;20051;-59
2023/08/10 12:15:27;;;;;;;3.65;1.40;;;;;;;;;;5114316;28;20363;-60
2023/08/10 12:17:52;;;;;;;5.47;1.60;;;;;;;;;;5114441;28;20428;-60
2023/08/10 12:20:18;;;;;;;5.63;1.90;;;;;;;;;;5114558;28;20527;-61
2023/08/10 12:22:43;;;;;;;4.10;1.60;;;;;;;;;;5114088;28;20812;-60
2023/08/10 12:25:09;;;;;;;4.50;1.30;;;;;;;;;;5114425;28;20106;-58
2023/08/10 12:27:34;;;;;;;3.60;1.60;;;;;;;;;;5114474;28;20039;-59
2023/08/10 12:29:59;;;;;;;4.70;1.73;;;;;;;;;;5114250;28;20375;-60
2023/08/10 12:32:24;;;;;;;3.63;1.47;;;;;;;;;;5114074;28;20023;-61
2023/08/10 12:34:49;;;;;;;5.63;1.83;;;;;;;;;;5113813;28;20015;-60
2023/08/10 12:37:15;;;;;;;4.20;1.70;;;;;;;;;;5114058;28;20035;-60
2023/08/10 12:39:40;;;;;;;3.50;1.40;;;;;;;;;;5114167;28;20073;-59
2023/08/10 12:42:05;;;;;;;3.78;1.58;;;;;;;;;;5114126;28;20039;-59
2023/08/10 12:44:30;;;;;;;4.30;1.50;;;;;;;;;;5113649;28;20023;-59
2023/08/10 12:46:57;;;;;;;4.22;1.48;;;;;;;;;;5119826;27;20019;-59
2023/08/10 12:49:22;;;;;;;3.35;1.40;;;;;;;;;;5134421;27;20037;-60
2023/08/10 12:51:47;;;;;;;5.73;1.70;;;;;;;;;;5134328;27;20011;-59
2023/08/10 12:54:12;;;;;;;4.90;1.60;;;;;;;;;;5133680;27;20015;-59
2023/08/10 12:56:38;;;;;;;4.00;1.60;;;;;;;;;;5134450;27;20017;-58
2023/08/10 12:59:03;;;;;;;4.20;1.50;;;;;;;;;;5127790;27;20038;-61
2023/08/10 13:01:28;;;;;;;4.00;1.63;;;;;;;;;;5113760;28;20110;-60
2023/08/10 13:03:53;;;;;;;6.13;1.40;;;;;;;;;;5113160;28;20028;-60
2023/08/10 13:06:18;;;;;;;4.20;1.53;;;;;;;;;;5113772;28;20027;-60
2023/08/10 13:08:45;;;;;;;4.13;1.40;;;;;;;;;;5113323;28;20035;-59
2023/08/10 13:11:10;;;;;;;4.22;1.50;;;;;;;;;;5112874;28;20015;-59
2023/08/10 13:13:35;;;;;;;4.50;1.60;;;;;;;;;;5113074;28;20030;-60
2023/08/10 13:16:01;;;;;;;3.70;1.70;;;;;;;;;;5113729;28;20459;-61
2023/08/10 13:18:26;;;;;;;4.93;1.40;;;;;;;;;;5113384;28;20024;-60
2023/08/10 13:20:51;;;;;;;4.60;1.48;;;;;;;;;;5113425;28;20024;-60
2023/08/10 13:23:16;;;;;;;4.37;1.50;;;;;;;;;;5118938;27;20031;-60
2023/08/10 13:25:41;;;;;;;2.83;1.30;;;;;;;;;;5134298;27;20486;-60
2023/08/10 13:28:06;;;;;;;4.07;1.67;;;;;;;;;;5133827;27;20019;-58
2023/08/10 13:30:32;;;;;;;4.03;1.60;;;;;;;;;;5134205;27;20016;-59
2023/08/10 13:32:57;;;;;;;4.40;1.52;;;;;;;;;;5133749;27;20019;-61
2023/08/10 13:35:22;;;;;;;4.13;1.80;;;;;;;;;;5127794;27;20050;-59
2023/08/10 13:37:47;;;;;;;6.90;1.60;;;;;;;;;;5113392;28;20035;-60
2023/08/10 13:40:13;;;;;;;4.17;1.60;;;;;;;;;;5113507;28;20103;-59
2023/08/10 13:42:38;;;;;;;5.05;1.90;;;;;;;;;;5113568;28;20019;-60
2023/08/10 13:45:03;;;;;;;4.50;1.40;;;;;;;;;;5112861;28;20432;-59
2023/08/10 13:47:29;;;;;;;6.97;1.80;;;;;;;;;;5113609;28;20027;-60
2023/08/10 13:49:54;;;;;;;4.07;1.73;;;;;;;;;;5112833;28;20024;-58
2023/08/10 13:52:19;;;;;;;4.40;1.60;;;;;;;;;;5113329;28;20028;-58
2023/08/10 13:54:44;;;;;;;3.63;1.60;;;;;;;;;;5112729;28;20495;-60
2023/08/10 13:57:11;;;;;;;4.72;1.60;;;;;;;;;;5113755;28;20031;-61
2023/08/10 13:59:37;;;;;;;4.10;1.73;;;;;;;;;;5113507;28;20038;-61
2023/08/10 14:02:02;;;;;;;3.85;1.48;;;;;;;;;;5122855;27;20023;-59
2023/08/10 14:04:27;;;;;;;4.60;1.67;;;;;;;;;;5133500;27;20655;-60
2023/08/10 14:06:52;;;;;;;4.27;1.80;;;;;;;;;;5133386;27;20454;-59
2023/08/10 14:09:18;;;;;;;5.33;1.67;;;;;;;;;;5129349;27;20023;-60
2023/08/10 14:11:44;;;;;;;3.58;1.48;;;;;;;;;;5131504;27;20034;-60
2023/08/10 14:14:09;;;;;;;4.00;1.50;;;;;;;;;;5132880;27;20098;-60
2023/08/10 14:16:34;;;;;;;3.35;1.50;;;;;;;;;;5130230;27;20098;-59
2023/08/10 14:18:59;;;;;;;4.77;2.03;;;;;;;;;;5125160;27;20444;-59
2023/08/10 14:21:24;;;;;;;3.70;1.50;;;;;;;;;;5127506;27;20561;-60
2023/08/10 14:23:50;;;;;;;4.30;1.83;;;;;;;;;;5112277;28;20020;-60
2023/08/10 14:26:15;;;;;;;3.87;1.70;;;;;;;;;;5112819;28;20493;-60
2023/08/10 14:28:40;;;;;;;4.53;1.60;;;;;;;;;;5112888;28;20016;-60
2023/08/10 14:31:05;;;;;;;4.90;1.80;;;;;;;;;;5113038;28;20027;-60
2023/08/10 14:33:31;;;;;;;4.10;1.80;;;;;;;;;;5112311;28;20031;-59
2023/08/10 14:35:56;;;;;;;3.70;1.48;;;;;;;;;;5115691;28;20023;-58
2023/08/10 14:38:21;;;;;;;4.13;1.70;;;;;;;;;;5116249;27;20025;-60